Flight Track Log - Related Links

Times and Time Zones

All times are in EDT time to prevent confusion due to time zone crossing. See the SWA3206 flight status page for this flight to view local times or setup timezone preferences in your user account.

Time Position Orientation Groundspeed Altitude Reporting Facility
EDT Latitude Longitude Course Direction KTS MPH feet Rate Location/Type
Wed 07:03:29 PM 32.7333 -117.2167 287° West 150 173 1,600  Level Southern California TRACON
Wed 07:04:29 PM 32.7500 -117.2833 287° West 218 251 3,800 2,073 Climbing Southern California TRACON
Wed 07:05:19 PM 32.7308 -117.3256 242° Southwest 248 285 5,400 2,732 Climbing Los Angeles Center
Wed 07:06:21 PM 32.6742 -117.2892 152° Southeast 250 288 8,900 2,903 Climbing Los Angeles Center
Wed 07:07:23 PM 32.6417 -117.1867 111° Southeast 300 345 11,400 2,758 Climbing Los Angeles Center
Wed 07:08:25 PM 32.6247 -117.0717 100° East 344 396 14,600 3,145 Climbing Los Angeles Center
Wed 07:09:27 PM 32.6139 -116.9508 96° East 367 422 17,900 3,194 Climbing Los Angeles Center
Wed 07:10:29 PM 32.6250 -116.8250 84° East 383 441 21,200 3,216 Climbing Los Angeles Center
Wed 07:11:32 PM 32.6386 -116.6919 83° East 405 466 24,600 2,736 Climbing Los Angeles Center
Wed 07:12:34 PM 32.6536 -116.5308 84° East 420 483 26,900 1,161 Climbing Los Angeles Center
Wed 07:13:36 PM 32.6672 -116.3894 83° East 436 502 27,000 48 Climbing Los Angeles Center
Wed 07:14:38 PM 32.6808 -116.2503 83° East 434 499 27,000  Level Los Angeles Center
Wed 07:15:40 PM 32.6936 -116.1094 84° East 436 502 27,000  Level Los Angeles Center
Wed 07:16:42 PM 32.7075 -115.9692 83° East 433 498 27,000  Level Los Angeles Center
Wed 07:17:44 PM 32.7231 -115.7992 84° East 435 501 27,000  Level Los Angeles Center
Wed 07:18:46 PM 32.7358 -115.6569 84° East 436 502 27,000  Level Los Angeles Center
Wed 07:19:48 PM 32.7486 -115.5144 84° East 437 503 27,000  Level Los Angeles Center
Wed 07:20:51 PM 32.7525 -115.3708 88° East 441 507 27,000  Level Los Angeles Center
Wed 07:21:53 PM 32.7547 -115.2264 89° East 440 506 27,000  Level Los Angeles Center
Wed 07:22:55 PM 32.7581 -115.0531 89° East 439 505 27,000 -387 Level Los Angeles Center
Wed 07:23:57 PM 32.7608 -114.9092 89° East 438 504 26,200 -871 Descending Los Angeles Center
Wed 07:24:59 PM 32.7631 -114.7675 89° East 433 498 25,200 -581 Descending Los Angeles Center
Wed 07:26:01 PM 32.7650 -114.6264 89° East 429 494 25,000 -97 Descending Los Angeles Center
Wed 07:27:03 PM 32.7686 -114.4869 88° East 426 490 25,000  Level Los Angeles Center
Wed 07:28:05 PM 32.7703 -114.3458 89° East 426 490 25,000  Level Los Angeles Center
Wed 07:29:07 PM 32.7711 -114.1781 90° East 425 489 25,000  Level Los Angeles Center
Wed 07:30:10 PM 32.7733 -114.0369 89° East 427 491 25,000  Level Los Angeles Center
Wed 07:31:12 PM 32.7839 -113.8967 85° East 427 491 25,000  Level Los Angeles Center
Wed 07:32:14 PM 32.8050 -113.7572 80° East 429 494 25,000  Level Los Angeles Center
Wed 07:33:16 PM 32.8581 -113.6344 63° Northeast 429 494 25,000 -48 Level Los Angeles Center
Wed 07:34:18 PM 32.9494 -113.5103 49° Northeast 421 484 24,900 -1,016 Descending Los Angeles Center
Wed 07:35:20 PM 33.0208 -113.4119 49° Northeast 417 480 22,900 -1,452 Descending Los Angeles Center
Wed 07:36:22 PM 33.0944 -113.3133 48° Northeast 405 466 21,900 -1,403 Descending Los Angeles Center
Wed 07:37:24 PM 33.1650 -113.2192 48° Northeast 389 448 20,000 -2,089 Descending Los Angeles Center
Wed 07:38:37 PM 33.2503 -113.1014 49° Northeast 382 440 17,200 -2,301 Descending Albuquerque Center

Login

Don't have an account? Register now (free) for customized features, flight alerts, and more!